EDVK/KSF METAR and TAF weather

Enter ICAO airport designator
Station Type Date Time Source
EDVK METAR 2019/06/18 19:50 UTC NOAA

EDVK 181950Z 14003KT 080V180 CAVOK 22/16 Q1013


Station Type Date Time Source
EDVK Decoded METAR 2019/06/18 19:50 UTC NOAA

Kassel / Calden, Germany (EDVK) 51-24N 009-23E 283M
Jun 18, 2019 - 03:50 PM EDT / 2019.06.18 1950 UTC
Wind: from the SE (140 degrees) at 3 MPH (3 KT) (direction variable):0
Visibility: greater than 7 mile(s):0
Temperature: 71 F (22 C)
Dew Point: 60 F (16 C)
Relative Humidity: 68%
Pressure (altimeter): 29.91 in. Hg (1013 hPa)
ob: EDVK 181950Z 14003KT 080V180 CAVOK 22/16 Q1013
cycle: 20

Station Type Date Time Source
EDVK TAF 2011/03/23 07:09 UTC NOAA

TAF COR EDVK 230655Z 2307/2321 30002KT 3500 BR SCT025 PROB30
TEMPO 2307/2309 1400 BCFG
BECMG 2307/2310 01007KT 8000

Example: see airport list